Time;durP1;ratioP1;P1;durP2;ratioP2;P2;SDS_P1;SDS_P2;PMS_P1;PMS_P2;Temp;Humidity;BMP_temperature;BMP_pressure;BME280_temperature;BME280_humidity;BME280_pressure;Samples;Min_cycle;Max_cycle;Signal;HPM_P1;HPM_P2
2023/02/06 00:02:10;;;;;;;;;11.00;6.25;;;;;7.58;55.29;103648.75;4941282;28;45239;-64
2023/02/06 00:04:35;;;;;;;;;11.00;5.50;;;;;7.56;55.67;103651.31;4940328;28;45249;-64
2023/02/06 00:07:00;;;;;;;;;11.00;7.00;;;;;7.55;55.31;103656.47;4955952;28;46807;-64
2023/02/06 00:09:26;;;;;;;;;7.00;5.75;;;;;7.53;55.40;103650.28;4940304;28;45841;-64
2023/02/06 00:11:51;;;;;;;;;19.00;10.00;;;;;7.51;55.71;103652.84;4955775;28;45410;-64
2023/02/06 00:14:17;;;;;;;;;11.25;9.00;;;;;7.49;55.40;103654.47;4941390;28;45488;-63
2023/02/06 00:16:42;;;;;;;;;12.50;5.00;;;;;7.41;55.58;103651.50;4955727;28;47011;-63
2023/02/06 00:19:08;;;;;;;;;6.75;5.25;;;;;7.47;55.38;103661.34;4941331;28;45495;-63
2023/02/06 00:21:33;;;;;;;;;13.00;9.50;;;;;7.46;55.57;103654.34;4956119;28;45346;-63
2023/02/06 00:24:00;;;;;;;;;17.25;7.25;;;;;7.45;55.62;103657.78;4939923;28;45300;-63
2023/02/06 00:26:26;;;;;;;;;11.25;5.75;;;;;7.42;55.66;103650.69;4940637;28;45319;-63
2023/02/06 00:28:52;;;;;;;;;6.25;5.25;;;;;7.42;55.65;103648.06;4941081;28;45670;-63
2023/02/06 00:31:17;;;;;;;;;9.50;6.00;;;;;7.41;55.44;103653.22;4941133;28;45604;-63
2023/02/06 00:33:43;;;;;;;;;8.25;4.50;;;;;7.40;55.95;103648.84;4928720;28;45227;-63
2023/02/06 00:36:09;;;;;;;;;8.25;5.75;;;;;7.39;55.45;103650.53;4937343;28;46145;-63
2023/02/06 00:38:38;;;;;;;;;9.50;6.00;;;;;7.40;55.64;103648.84;4939398;28;45980;-63
2023/02/06 00:41:03;;;;;;;;;10.25;8.00;;;;;7.37;55.66;103636.50;4939534;28;45421;-63
2023/02/06 00:43:29;;;;;;;;;13.75;9.00;;;;;7.38;55.70;103646.13;4940491;28;45811;-63
2023/02/06 00:45:56;;;;;;;;;11.75;9.00;;;;;7.37;55.60;103652.22;4953072;28;59081;-63
2023/02/06 00:48:22;;;;;;;;;12.75;5.75;;;;;7.36;55.74;103657.34;4956389;28;45455;-63
2023/02/06 00:50:51;;;;;;;;;10.00;5.25;;;;;7.34;55.60;103652.06;4959912;28;45381;-63
2023/02/06 00:53:17;;;;;;;;;13.50;9.00;;;;;7.31;55.76;103649.31;4959868;28;45735;-63
2023/02/06 00:55:43;;;;;;;;;10.50;5.00;;;;;7.32;55.94;103648.50;4960039;28;45904;-63
2023/02/06 00:58:08;;;;;;;;;11.50;8.75;;;;;7.30;55.93;103650.13;4959101;28;45449;-63
2023/02/06 01:00:33;;;;;;;;;10.00;6.00;;;;;7.29;55.85;103650.94;4959951;28;45459;-63
2023/02/06 01:02:59;;;;;;;;;9.25;6.75;;;;;7.28;55.88;103642.22;4959354;28;45310;-63
2023/02/06 01:05:25;;;;;;;;;10.50;4.25;;;;;7.27;55.83;103639.50;4959521;28;45657;-63
2023/02/06 01:07:50;;;;;;;;;8.00;5.00;;;;;7.26;55.66;103650.81;4960169;28;45453;-63
2023/02/06 01:10:16;;;;;;;;;10.75;8.00;;;;;7.23;56.03;103640.19;4962677;28;45485;-63
2023/02/06 01:12:41;;;;;;;;;6.00;6.00;;;;;7.23;55.96;103645.44;4961480;28;45457;-63
2023/02/06 01:15:09;;;;;;;;;10.25;7.75;;;;;7.22;55.90;103643.63;4945443;28;47203;-63
2023/02/06 01:17:35;;;;;;;;;16.00;11.00;;;;;7.20;55.76;103642.69;4961889;28;45397;-63
2023/02/06 01:20:01;;;;;;;;;9.75;6.50;;;;;7.17;55.81;103640.81;4963071;28;45252;-63
2023/02/06 01:22:26;;;;;;;;;11.50;6.25;;;;;7.13;56.01;103629.31;4963182;28;45306;-63
2023/02/06 01:24:51;;;;;;;;;9.50;7.50;;;;;7.13;56.06;103638.88;4962909;28;45358;-63
2023/02/06 01:27:17;;;;;;;;;8.50;6.75;;;;;7.11;55.77;103633.56;4962771;28;46098;-63
2023/02/06 01:29:42;;;;;;;;;9.25;7.00;;;;;7.12;56.07;103642.34;4945709;28;45762;-63
2023/02/06 01:32:08;;;;;;;;;10.00;5.50;;;;;7.10;56.06;103639.63;4955532;28;45523;-63
2023/02/06 01:34:33;;;;;;;;;5.00;4.00;;;;;7.07;55.98;103639.50;4956443;28;45641;-63
2023/02/06 01:36:59;;;;;;;;;8.00;5.00;;;;;7.07;56.25;103638.59;4945575;28;45264;-63
2023/02/06 01:39:24;;;;;;;;;10.75;6.25;;;;;7.07;56.19;103638.59;4945528;28;45464;-63
2023/02/06 01:41:49;;;;;;;;;10.50;7.75;;;;;7.04;56.23;103634.09;4962399;28;45469;-63
2023/02/06 01:44:22;;;;;;;;;8.25;3.75;;;;;7.03;56.20;103640.19;4962445;28;46144;-63
2023/02/06 01:46:54;;;;;;;;;9.50;5.75;;;;;7.03;55.97;103639.28;4962922;28;45345;-63
2023/02/06 01:49:28;;;;;;;;;8.00;4.25;;;;;7.00;56.01;103634.78;4952401;28;45573;-63
2023/02/06 01:52:03;;;;;;;;;10.50;8.00;;;;;6.98;56.14;103631.19;4962545;28;45456;-63
2023/02/06 01:54:29;;;;;;;;;8.75;7.00;;;;;6.97;56.26;103622.47;4962323;28;45431;-63
2023/02/06 01:57:00;;;;;;;;;9.25;8.00;;;;;6.96;56.04;103612.84;4962227;28;45321;-63
2023/02/06 01:59:26;;;;;;;;;11.00;6.25;;;;;6.93;56.10;103606.56;4962507;28;45322;-63
2023/02/06 02:01:52;;;;;;;;;10.50;6.75;;;;;6.94;56.26;103621.44;4962413;28;45395;-63
2023/02/06 02:04:21;;;;;;;;;10.00;6.25;;;;;6.92;56.19;103603.06;4962287;28;45973;-63
2023/02/06 02:07:03;;;;;;;;;14.25;8.00;;;;;6.89;56.30;103602.03;4944948;28;45293;-63
2023/02/06 02:09:29;;;;;;;;;16.50;7.25;;;;;6.90;56.31;103606.44;4933686;28;45298;-63
2023/02/06 02:11:54;;;;;;;;;10.75;9.50;;;;;6.88;56.16;103590.69;4961790;28;45304;-63
2023/02/06 02:14:20;;;;;;;;;9.25;7.50;;;;;6.87;56.37;103594.13;4962330;28;45925;-63
2023/02/06 02:17:05;;;;;;;;;15.00;10.00;;;;;6.86;56.47;103604.50;4962208;28;45236;-63
2023/02/06 02:20:02;;;;;;;;;8.75;5.00;;;;;6.83;56.22;103597.41;4945028;28;45480;-64
2023/02/06 02:22:43;;;;;;;;;12.00;9.50;;;;;6.82;56.51;103595.63;4925432;28;45429;-64
2023/02/06 02:25:50;;;;;;;;;5.00;5.00;;;;;6.78;56.12;103594.59;4959372;28;45216;-63
2023/02/06 02:28:46;;;;;;;;;7.75;6.50;;;;;6.79;56.56;103599.00;4962015;28;45261;-63
2023/02/06 02:31:48;;;;;;;;;10.00;6.00;;;;;6.76;56.48;103596.22;4944638;28;45451;-63
2023/02/06 02:34:39;;;;;;;;;12.25;8.75;;;;;6.74;56.38;103586.50;4953331;28;45272;-63
2023/02/06 02:37:24;;;;;;;;;9.75;7.50;;;;;6.73;56.38;103585.63;4949492;28;45344;-63
2023/02/06 02:40:33;;;;;;;;;11.50;5.25;;;;;6.71;56.58;103581.16;4961756;28;45340;-63
2023/02/06 02:43:03;;;;;;;;;7.00;4.25;;;;;6.71;56.59;103583.78;4935509;28;45384;-63
2023/02/06 02:45:56;;;;;;;;;10.00;4.50;;;;;6.71;56.61;103584.66;4961904;28;45328;-63
2023/02/06 02:48:28;;;;;;;;;7.50;6.00;;;;;6.68;56.65;103587.13;4945542;28;46161;-63
2023/02/06 02:50:56;;;;;;;;;13.50;7.75;;;;;6.68;56.57;103592.34;4957558;28;45446;-63
2023/02/06 02:53:21;;;;;;;;;9.00;5.00;;;;;6.67;56.72;103580.09;4961890;28;45262;-63
2023/02/06 02:55:47;;;;;;;;;9.00;6.25;;;;;6.62;56.69;103577.25;4959305;28;45411;-64
2023/02/06 02:58:19;;;;;;;;;7.75;4.50;;;;;6.63;56.60;103580.78;4961510;28;46257;-63
2023/02/06 03:00:53;;;;;;;;;12.00;7.00;;;;;6.61;56.67;103580.69;4961626;28;45288;-63
2023/02/06 03:03:22;;;;;;;;;11.25;8.75;;;;;6.54;56.44;103570.81;4943731;28;45296;-64
2023/02/06 03:06:19;;;;;;;;;13.00;6.75;;;;;6.55;56.66;103574.28;4961454;28;45424;-64
2023/02/06 03:08:55;;;;;;;;;12.25;7.50;;;;;6.52;56.85;103572.44;4932017;28;45285;-64
2023/02/06 03:11:21;;;;;;;;;13.00;9.00;;;;;6.53;56.59;103584.69;4961213;28;45325;-64
2023/02/06 03:14:01;;;;;;;;;5.00;3.25;;;;;6.51;56.84;103570.63;4961474;28;45589;-64
2023/02/06 03:16:26;;;;;;;;;5.75;5.00;;;;;6.48;56.58;103567.88;4961452;28;45183;-64
2023/02/06 03:19:03;;;;;;;;;11.25;5.75;;;;;6.48;56.88;103567.88;4961127;28;45347;-64
2023/02/06 03:21:31;;;;;;;;;10.50;7.00;;;;;6.46;56.68;103559.97;4961216;28;45335;-64
2023/02/06 03:24:05;;;;;;;;;10.00;8.50;;;;;6.44;56.84;103564.22;4961327;28;45403;-64
2023/02/06 03:26:32;;;;;;;;;7.00;5.50;;;;;6.43;56.88;103554.59;4960892;28;45351;-64
2023/02/06 03:29:03;;;;;;;;;13.00;8.50;;;;;6.40;56.91;103551.84;4961261;28;45359;-64
2023/02/06 03:31:39;;;;;;;;;7.00;6.25;;;;;6.40;56.70;103557.06;4959404;28;45549;-65
2023/02/06 03:34:18;;;;;;;;;8.25;4.50;;;;;6.40;56.99;103553.56;4951263;28;45377;-64
2023/02/06 03:36:44;;;;;;;;;9.25;7.00;;;;;6.36;56.81;103544.66;4960987;28;45538;-64
2023/02/06 03:39:10;;;;;;;;;13.50;9.25;;;;;6.37;56.97;103546.47;4961081;28;45250;-64
2023/02/06 03:41:37;;;;;;;;;13.50;8.25;;;;;6.36;56.83;103551.63;4943278;28;45317;-64
2023/02/06 03:44:08;;;;;;;;;11.50;7.75;;;;;6.37;56.84;103540.34;4961066;28;45366;-64
2023/02/06 03:46:37;;;;;;;;;10.00;6.75;;;;;6.35;56.92;103545.47;4960635;28;45252;-64
2023/02/06 03:49:06;;;;;;;;;10.50;7.50;;;;;6.33;56.90;103544.53;4950823;28;46298;-64
2023/02/06 03:51:42;;;;;;;;;8.00;4.00;;;;;6.31;56.96;103548.78;4961109;28;45375;-64
2023/02/06 03:54:10;;;;;;;;;10.75;8.75;;;;;6.29;57.08;103538.25;4960732;28;45243;-64
2023/02/06 03:56:53;;;;;;;;;14.00;8.50;;;;;6.28;57.04;103538.19;4960417;28;45393;-64
2023/02/06 03:59:19;;;;;;;;;10.75;8.00;;;;;6.26;56.70;103532.00;4960434;28;47884;-64
2023/02/06 04:01:51;;;;;;;;;10.00;7.67;;;;;6.23;57.17;103537.09;4960921;28;45277;-64
2023/02/06 04:04:20;;;;;;;;;13.50;9.00;;;;;6.23;57.10;103535.34;4943370;28;45336;-64
2023/02/06 04:06:46;;;;;;;;;14.00;7.75;;;;;6.22;56.98;103540.50;4960707;28;45492;-64
2023/02/06 04:09:11;;;;;;;;;8.25;5.00;;;;;6.20;57.18;103532.59;4941029;28;45595;-65
2023/02/06 04:11:36;;;;;;;;;10.50;8.75;;;;;6.19;57.07;103528.19;4956214;28;45829;-64
2023/02/06 04:14:02;;;;;;;;;11.25;9.50;;;;;6.17;57.41;103525.50;4956791;28;45446;-63
2023/02/06 04:16:27;;;;;;;;;11.25;10.75;;;;;6.16;57.20;103528.03;4960046;28;45532;-63
2023/02/06 04:18:53;;;;;;;;;18.25;11.00;;;;;6.14;57.21;103525.34;4959182;28;45920;-64
2023/02/06 04:21:18;;;;;;;;;15.25;8.00;;;;;6.14;57.07;103525.34;4942147;28;54638;-63
2023/02/06 04:23:44;;;;;;;;;9.00;7.25;;;;;6.12;57.12;103519.16;4960426;28;45485;-64
2023/02/06 04:26:09;;;;;;;;;14.75;10.00;;;;;6.12;57.25;103513.03;4959909;28;45472;-66
2023/02/06 04:28:34;;;;;;;;;13.25;10.25;;;;;6.11;57.23;103514.78;4960157;28;46068;-64
2023/02/06 04:31:00;;;;;;;;;13.25;9.25;;;;;6.11;57.29;103513.84;4959804;28;45392;-63
2023/02/06 04:33:25;;;;;;;;;12.50;8.75;;;;;6.09;57.21;103526.84;4957307;28;45405;-63
2023/02/06 04:35:50;;;;;;;;;11.25;7.50;;;;;6.08;57.32;103517.22;4959955;28;45411;-63
2023/02/06 04:38:16;;;;;;;;;20.75;9.50;;;;;6.07;57.35;103518.03;4959795;28;46059;-64
2023/02/06 04:40:41;;;;;;;;;14.50;9.00;;;;;6.07;57.21;103511.94;4961229;28;45456;-63
2023/02/06 04:43:07;;;;;;;;;11.25;6.25;;;;;6.06;57.40;103515.34;4963241;28;45368;-64
2023/02/06 04:45:32;;;;;;;;;11.25;9.50;;;;;6.05;57.35;103508.34;4961861;28;54195;-63
2023/02/06 04:47:57;;;;;;;;;15.00;10.50;;;;;6.04;57.41;103517.91;4961856;28;50955;-63
2023/02/06 04:50:23;;;;;;;;;10.25;7.75;;;;;6.03;57.29;103516.09;4954279;28;45411;-64
2023/02/06 04:52:48;;;;;;;;;10.75;6.75;;;;;6.03;57.32;103513.50;4963588;28;45299;-63
2023/02/06 04:55:14;;;;;;;;;14.00;8.50;;;;;6.03;57.43;103508.28;4963669;28;45306;-63
2023/02/06 04:57:39;;;;;;;;;13.75;8.00;;;;;6.03;57.39;103508.28;4962790;28;49639;-63
2023/02/06 05:00:06;;;;;;;;;11.75;9.00;;;;;6.03;57.46;103516.09;4963177;28;55214;-63
2023/02/06 05:02:36;;;;;;;;;16.00;10.00;;;;;6.02;57.20;103511.69;4963377;28;45226;-63
2023/02/06 05:05:02;;;;;;;;;11.50;10.00;;;;;6.01;57.29;103505.59;4963351;28;45453;-63
2023/02/06 05:07:27;;;;;;;;;10.00;9.00;;;;;6.01;57.69;103507.28;4963185;28;46174;-63
2023/02/06 05:09:53;;;;;;;;;12.25;10.25;;;;;6.01;57.50;103504.69;4963309;28;45315;-64
2023/02/06 05:12:18;;;;;;;;;9.75;8.25;;;;;5.98;57.59;103502.81;4962790;28;46420;-63
2023/02/06 05:14:43;;;;;;;;;16.75;12.00;;;;;5.98;57.50;103507.13;4963242;28;45529;-63
2023/02/06 05:17:08;;;;;;;;;14.50;10.50;;;;;5.97;57.45;103505.31;4962949;28;49459;-63
2023/02/06 05:19:34;;;;;;;;;8.50;8.50;;;;;5.95;57.50;103501.72;4963279;28;45288;-64
2023/02/06 05:21:59;;;;;;;;;12.50;9.25;;;;;5.91;57.52;103492.88;4963124;28;45235;-63
2023/02/06 05:24:24;;;;;;;;;10.50;8.25;;;;;5.93;57.56;103499.06;4945684;28;46151;-63
2023/02/06 05:26:50;;;;;;;;;12.00;9.25;;;;;5.92;57.42;103491.16;4962077;28;46246;-63
2023/02/06 05:29:15;;;;;;;;;14.00;11.00;;;;;5.90;57.56;103498.00;4963112;28;45299;-63
2023/02/06 05:31:40;;;;;;;;;17.25;10.00;;;;;5.89;57.53;103491.91;4959756;28;45536;-65
2023/02/06 05:34:06;;;;;;;;;16.25;10.00;;;;;5.89;57.61;103498.81;4953097;28;45473;-64
2023/02/06 05:36:31;;;;;;;;;12.25;9.00;;;;;5.86;57.50;103487.44;4962880;28;46147;-64
2023/02/06 05:38:56;;;;;;;;;16.50;8.50;;;;;5.85;57.61;103496.06;4962862;28;52591;-64
2023/02/06 05:41:22;;;;;;;;;10.25;10.25;;;;;5.82;57.51;103493.31;4962574;28;45396;-64
2023/02/06 05:43:47;;;;;;;;;14.25;10.00;;;;;5.82;57.67;103498.53;4962838;28;45472;-64
2023/02/06 05:46:12;;;;;;;;;18.25;13.00;;;;;5.82;57.55;103500.25;4962597;28;46208;-64
2023/02/06 05:48:38;;;;;;;;;13.25;7.00;;;;;5.80;57.51;103505.38;4956097;28;45391;-64
2023/02/06 05:51:04;;;;;;;;;11.00;7.00;;;;;5.78;57.81;103501.78;4959474;28;45270;-64
2023/02/06 05:53:29;;;;;;;;;8.25;7.50;;;;;5.79;57.87;103503.59;4945189;28;45304;-64
2023/02/06 05:55:55;;;;;;;;;5.25;3.25;;;;;5.78;57.63;103503.53;4962191;28;46069;-66
2023/02/06 05:58:21;;;;;;;;;16.25;9.75;;;;;5.76;57.51;103506.06;4962619;28;45246;-63
2023/02/06 06:00:46;;;;;;;;;19.25;13.25;;;;;5.76;57.58;103500.84;4962618;28;45565;-63
2023/02/06 06:03:12;;;;;;;;;14.50;10.25;;;;;5.75;57.57;103509.50;4962703;28;45433;-64
2023/02/06 06:05:37;;;;;;;;;13.50;8.25;;;;;5.73;57.63;103521.56;4962321;28;49806;-62
2023/02/06 06:08:02;;;;;;;;;9.25;6.75;;;;;5.74;57.65;103519.84;4962511;28;45264;-62
2023/02/06 06:10:28;;;;;;;;;18.00;12.50;;;;;5.71;57.56;103518.00;4962235;28;45252;-61
2023/02/06 06:12:53;;;;;;;;;9.75;8.50;;;;;5.70;57.61;103527.50;4962324;28;45318;-62
2023/02/06 06:15:18;;;;;;;;;11.50;9.75;;;;;5.68;57.61;103525.66;4962093;28;46086;-61
2023/02/06 06:17:44;;;;;;;;;12.75;9.00;;;;;5.69;57.52;103532.66;4962535;28;45326;-61
2023/02/06 06:20:10;;;;;;;;;11.75;7.50;;;;;5.67;57.81;103534.28;4962319;28;45417;-61
2023/02/06 06:22:35;;;;;;;;;16.75;10.00;;;;;5.65;57.78;103541.16;4962152;28;45216;-61
2023/02/06 06:25:00;;;;;;;;;15.75;7.50;;;;;5.61;57.84;103549.63;4961982;28;46266;-60
2023/02/06 06:27:26;;;;;;;;;13.00;9.25;;;;;5.62;57.53;103538.38;4961747;28;45338;-61
2023/02/06 06:29:51;;;;;;;;;13.75;8.75;;;;;5.51;57.75;103533.50;4962081;28;45268;-63
2023/02/06 06:32:17;;;;;;;;;19.75;14.00;;;;;5.59;57.80;103548.66;4954149;28;45236;-64
2023/02/06 06:34:43;;;;;;;;;12.75;8.00;;;;;5.56;57.85;103532.84;4939672;28;47472;-63
2023/02/06 06:37:08;;;;;;;;;15.00;12.00;;;;;5.58;57.87;103541.66;4961001;28;45366;-63
2023/02/06 06:39:33;;;;;;;;;13.75;9.50;;;;;5.57;57.82;103532.03;4962112;28;45259;-63
2023/02/06 06:41:59;;;;;;;;;14.50;10.00;;;;;5.53;57.88;103529.28;4961470;28;45528;-63
2023/02/06 06:44:24;;;;;;;;;10.25;9.00;;;;;5.57;57.68;103542.47;4944287;28;46283;-62
2023/02/06 06:46:49;;;;;;;;;14.25;9.25;;;;;5.56;57.50;103535.44;4944160;28;50518;-61
2023/02/06 06:49:15;;;;;;;;;10.75;9.50;;;;;5.53;57.92;103528.38;4952102;28;45301;-63
2023/02/06 06:51:40;;;;;;;;;9.50;7.25;;;;;5.53;57.82;103533.59;4961920;28;45405;-63
2023/02/06 06:54:05;;;;;;;;;10.75;10.00;;;;;5.51;57.64;103528.28;4961732;28;45240;-63
2023/02/06 06:56:31;;;;;;;;;11.75;9.00;;;;;5.49;57.95;103529.91;4961335;28;45267;-63
2023/02/06 06:58:56;;;;;;;;;12.50;7.50;;;;;5.49;57.94;103531.66;4944436;28;45248;-63
2023/02/06 07:01:21;;;;;;;;;12.50;7.25;;;;;5.49;57.94;103542.97;4961727;28;45331;-63
2023/02/06 07:03:47;;;;;;;;;8.25;8.25;;;;;5.47;57.93;103535.88;4961524;28;47081;-60
2023/02/06 07:06:13;;;;;;;;;14.50;11.25;;;;;5.44;57.93;103533.13;4961560;28;45274;-63
2023/02/06 07:08:42;;;;;;;;;15.75;9.00;;;;;5.46;57.82;103535.00;4944221;28;45341;-64
2023/02/06 07:11:09;;;;;;;;;14.25;6.25;;;;;5.44;57.70;103534.00;4961187;28;45167;-63
2023/02/06 07:13:34;;;;;;;;;9.25;7.00;;;;;5.45;57.85;103534.91;4961205;28;46005;-62
2023/02/06 07:16:00;;;;;;;;;15.00;8.00;;;;;5.44;57.85;103528.78;4960832;28;45492;-63
2023/02/06 07:18:25;;;;;;;;;15.25;12.75;;;;;5.43;57.75;103528.72;4961415;28;45378;-62
2023/02/06 07:20:50;;;;;;;;;9.00;8.50;;;;;5.43;57.60;103523.50;4950574;28;45395;-62
2023/02/06 07:23:16;;;;;;;;;19.50;12.00;;;;;5.43;57.85;103524.38;4947792;28;46121;-62
2023/02/06 07:25:41;;;;;;;;;12.75;8.50;;;;;5.42;57.64;103517.41;4961253;28;45259;-62
2023/02/06 07:28:07;;;;;;;;;11.75;10.25;;;;;5.41;57.89;103525.13;4961321;28;45550;-62
2023/02/06 07:30:32;;;;;;;;;12.25;7.00;;;;;5.39;57.99;103532.88;4961427;28;45251;-62
2023/02/06 07:32:57;;;;;;;;;17.00;9.00;;;;;5.37;57.70;103534.50;4960853;28;45305;-62
2023/02/06 07:35:23;;;;;;;;;11.50;10.00;;;;;5.40;57.88;103549.44;4960956;28;50637;-62
2023/02/06 07:37:48;;;;;;;;;18.75;10.25;;;;;5.40;57.88;103552.94;4961078;28;45414;-62
2023/02/06 07:40:13;;;;;;;;;14.00;8.50;;;;;5.39;57.94;103551.13;4961341;28;45170;-62
2023/02/06 07:42:39;;;;;;;;;14.50;9.50;;;;;5.39;58.02;103547.63;4942717;28;46956;-62
2023/02/06 07:45:04;;;;;;;;;11.00;8.50;;;;;5.41;57.92;103566.84;4960951;28;45254;-63
2023/02/06 07:47:30;;;;;;;;;19.50;15.00;;;;;5.39;57.89;103572.00;4959552;28;45381;-62
2023/02/06 07:49:55;;;;;;;;;10.25;9.00;;;;;5.39;58.09;103565.91;4959092;28;52298;-63
2023/02/06 07:52:21;;;;;;;;;14.75;9.50;;;;;5.41;58.10;103572.06;4959451;28;46296;-60
2023/02/06 07:54:46;;;;;;;;;14.25;12.00;;;;;5.41;57.84;103564.25;4959340;28;45442;-62
2023/02/06 07:57:12;;;;;;;;;17.00;9.75;;;;;5.42;57.99;103571.25;4959032;28;45275;-61
2023/02/06 07:59:37;;;;;;;;;13.25;9.75;;;;;5.42;58.05;103569.56;4956957;28;45213;-61
2023/02/06 08:02:02;;;;;;;;;10.50;9.25;;;;;5.42;57.88;103566.03;4958727;28;58026;-61
2023/02/06 08:04:33;;;;;;;;;14.50;10.00;;;;;5.42;57.93;103566.03;4959303;28;45306;-61
2023/02/06 08:06:59;;;;;;;;;13.00;12.25;;;;;5.43;58.00;103552.19;4957002;28;45415;-61
2023/02/06 08:09:25;;;;;;;;;12.25;9.75;;;;;5.44;58.03;103548.78;4964357;28;45518;-61
2023/02/06 08:11:50;;;;;;;;;13.25;11.50;;;;;5.46;58.12;103535.00;4958637;28;47077;-62
2023/02/06 08:14:15;;;;;;;;;15.50;9.25;;;;;5.45;58.24;103530.59;4959028;28;45410;-62
2023/02/06 08:16:41;;;;;;;;;16.00;11.25;;;;;5.44;58.33;103536.63;4947308;28;45286;-61
2023/02/06 08:19:09;;;;;;;;;14.25;11.75;;;;;5.47;58.10;103539.41;4959175;28;45445;-61
2023/02/06 08:21:35;;;;;;;;;14.75;12.00;;;;;5.49;57.98;103537.75;4958923;28;46594;-61
2023/02/06 08:24:00;;;;;;;;;55.75;42.00;;;;;5.48;58.30;103528.13;4958763;28;45669;-62
2023/02/06 08:26:28;;;;;;;;;21.25;11.00;;;;;5.52;58.11;103519.66;4958846;28;45583;-61
2023/02/06 08:28:54;;;;;;;;;12.25;9.50;;;;;5.54;58.16;103518.00;4959028;28;45579;-61
2023/02/06 08:31:23;;;;;;;;;14.75;10.00;;;;;5.59;58.18;103522.59;4958830;28;45470;-61
2023/02/06 08:33:48;;;;;;;;;14.75;11.00;;;;;5.59;58.28;103518.25;4958854;28;45355;-61
2023/02/06 08:36:15;;;;;;;;;19.50;13.50;;;;;5.64;58.21;103511.53;4947222;28;45368;-62
2023/02/06 08:38:42;;;;;;;;;13.75;11.50;;;;;5.68;58.11;103518.69;4958777;28;46391;-62
2023/02/06 08:41:20;;;;;;;;;33.75;23.75;;;;;5.74;58.27;103502.47;4958440;28;46137;-62
2023/02/06 08:43:47;;;;;;;;;13.75;11.75;;;;;5.77;58.38;103502.59;4957200;28;45424;-62
2023/02/06 08:46:12;;;;;;;;;18.00;10.50;;;;;5.81;58.35;103498.44;4948576;28;45462;-62
2023/02/06 08:48:38;;;;;;;;;16.00;12.75;;;;;5.85;58.68;103503.91;4956148;28;45271;-62
2023/02/06 08:51:05;;;;;;;;;14.50;13.00;;;;;5.90;58.28;103492.78;4958737;28;46339;-62
2023/02/06 08:53:31;;;;;;;;;10.75;8.00;;;;;5.89;58.31;103480.53;4944563;28;45420;-62
2023/02/06 08:56:08;;;;;;;;;15.25;11.50;;;;;6.02;58.46;103493.41;4959232;28;45477;-62
2023/02/06 08:58:35;;;;;;;;;14.75;13.75;;;;;6.09;58.56;103484.16;4950097;28;45249;-62
2023/02/06 09:01:17;;;;;;;;;15.50;11.00;;;;;6.17;58.45;103483.72;4961246;28;45351;-62
2023/02/06 09:03:44;;;;;;;;;13.50;11.00;;;;;6.26;58.37;103492.81;4963584;28;45206;-62
2023/02/06 09:06:10;;;;;;;;;12.25;10.25;;;;;6.34;58.81;103481.03;4963194;28;45205;-62
2023/02/06 09:08:37;;;;;;;;;12.50;10.00;;;;;6.44;58.63;103491.09;4963469;28;45382;-62
2023/02/06 09:11:06;;;;;;;;;12.50;8.50;;;;;6.57;58.45;103489.03;4962694;28;46258;-62
2023/02/06 09:13:32;;;;;;;;;22.00;13.00;;;;;6.70;58.79;103491.38;4961991;28;45426;-62
2023/02/06 09:15:57;;;;;;;;;11.25;9.50;;;;;6.85;58.75;103490.31;4963389;28;45300;-63
2023/02/06 09:18:23;;;;;;;;;18.50;11.25;;;;;7.01;59.04;103500.63;4963312;28;45180;-63
2023/02/06 09:20:49;;;;;;;;;16.75;12.25;;;;;7.16;58.84;103496.06;4963230;28;46297;-62
2023/02/06 09:23:16;;;;;;;;;13.75;10.50;;;;;7.36;58.82;103498.66;4963357;28;45406;-63
2023/02/06 09:25:43;;;;;;;;;12.50;11.50;;;;;7.55;58.79;103492.50;4945718;28;45456;-62
2023/02/06 09:28:08;;;;;;;;;13.25;10.50;;;;;7.75;59.11;103495.94;4962935;28;45408;-62
2023/02/06 09:30:34;;;;;;;;;18.50;13.00;;;;;7.95;58.98;103508.97;4962852;28;46397;-64
2023/02/06 09:32:59;;;;;;;;;17.50;11.75;;;;;8.15;58.87;103501.94;4962677;28;45437;-62
2023/02/06 09:35:24;;;;;;;;;16.25;11.75;;;;;8.32;58.74;103494.72;4963067;28;45384;-62
2023/02/06 09:37:50;;;;;;;;;19.00;13.25;;;;;8.55;58.89;103502.59;4963277;28;45263;-63
2023/02/06 09:40:19;;;;;;;;;14.00;12.50;;;;;8.72;59.09;103498.03;4962634;28;45366;-62
2023/02/06 09:42:46;;;;;;;;;16.75;11.75;;;;;8.91;58.85;103494.34;4961337;28;45416;-63
2023/02/06 09:45:15;;;;;;;;;17.25;12.75;;;;;9.09;59.07;103486.25;4962725;28;45251;-62
2023/02/06 09:47:58;;;;;;;;;10.75;10.25;;;;;9.23;59.07;103486.72;4962859;28;45326;-62
2023/02/06 09:50:43;;;;;;;;;11.00;10.00;;;;;9.36;59.09;103488.06;4962760;28;45334;-62
2023/02/06 09:53:27;;;;;;;;;19.75;13.00;;;;;9.48;59.24;103482.34;4962674;28;45362;-62
2023/02/06 09:56:14;;;;;;;;;17.50;11.00;;;;;9.63;58.98;103480.22;4961243;28;45446;-62
2023/02/06 09:58:42;;;;;;;;;13.50;11.75;;;;;9.76;59.20;103486.81;4952653;28;45401;-62
2023/02/06 10:01:32;;;;;;;;;14.75;10.00;;;;;9.89;59.07;103486.34;4962367;28;47064;-62
2023/02/06 10:04:15;;;;;;;;;13.50;9.75;;;;;10.01;58.83;103480.59;4962471;28;45213;-62
2023/02/06 10:06:56;;;;;;;;;19.75;12.00;;;;;10.16;59.15;103487.16;4961423;28;45371;-62
2023/02/06 10:09:36;;;;;;;;;12.25;9.25;;;;;10.29;59.41;103491.97;4962457;28;45266;-62
2023/02/06 10:12:09;;;;;;;;;17.50;11.25;;;;;10.44;59.23;103496.84;4960925;28;45318;-62
2023/02/06 10:14:51;;;;;;;;;18.75;13.25;;;;;10.56;59.06;103494.59;4962360;28;45240;-62
2023/02/06 10:17:27;;;;;;;;;14.00;11.25;;;;;10.69;59.28;103494.94;4962426;28;45469;-62
2023/02/06 10:20:04;;;;;;;;;16.50;13.25;;;;;10.81;58.80;103502.31;4962403;28;45243;-62
2023/02/06 10:22:42;;;;;;;;;19.00;12.00;;;;;10.92;59.11;103492.06;4962007;28;45326;-62
2023/02/06 10:25:10;;;;;;;;;14.75;13.25;;;;;11.04;59.13;103495.94;4962314;28;45247;-62
2023/02/06 10:27:40;;;;;;;;;17.75;13.00;;;;;11.15;59.13;103485.69;4962048;28;45350;-62
2023/02/06 10:30:11;;;;;;;;;17.50;15.25;;;;;11.26;59.14;103486.00;4962187;28;45251;-62
2023/02/06 10:32:49;;;;;;;;;11.25;9.50;;;;;11.39;58.88;103471.41;4961932;28;45426;-62
2023/02/06 10:35:22;;;;;;;;;18.25;14.00;;;;;11.52;59.15;103483.16;4962033;28;45492;-62
2023/02/06 10:38:07;;;;;;;;;18.25;11.00;;;;;11.65;58.98;103479.97;4962164;28;45361;-62
2023/02/06 10:41:06;;;;;;;;;13.25;13.25;;;;;11.79;58.95;103487.34;4962146;28;45309;-62
2023/02/06 10:43:47;;;;;;;;;15.00;11.75;;;;;11.92;58.97;103483.25;4960928;28;45311;-62
2023/02/06 10:46:19;;;;;;;;;15.25;13.25;;;;;12.06;59.32;103471.31;4961569;28;45252;-62
2023/02/06 10:48:59;;;;;;;;;17.00;13.25;;;;;12.22;58.71;103479.59;4961951;28;45326;-62
2023/02/06 10:51:36;;;;;;;;;13.75;10.50;;;;;12.33;58.90;103470.16;4961681;28;45492;-62
2023/02/06 10:54:10;;;;;;;;;17.75;11.00;;;;;12.45;58.95;103478.34;4961671;28;45352;-62
2023/02/06 10:56:43;;;;;;;;;14.25;11.25;;;;;12.62;58.98;103476.06;4961214;28;45325;-62
2023/02/06 10:59:21;;;;;;;;;14.50;11.75;;;;;12.78;58.89;103473.72;4961698;28;45302;-62
2023/02/06 11:01:50;;;;;;;;;18.50;14.25;;;;;12.91;58.79;103462.56;4961781;28;45385;-62
2023/02/06 11:04:47;;;;;;;;;15.00;12.75;;;;;13.08;58.88;103459.34;4961228;28;46240;-62
2023/02/06 11:07:37;;;;;;;;;15.50;12.25;;;;;13.29;58.76;103462.38;4952694;28;45262;-62
2023/02/06 11:10:04;;;;;;;;;13.75;12.50;;;;;13.45;58.72;103467.97;4961768;28;45240;-62
2023/02/06 11:12:41;;;;;;;;;17.00;13.50;;;;;13.65;58.58;103468.31;4961010;28;45376;-60
2023/02/06 11:15:39;;;;;;;;;17.00;12.25;;;;;13.86;58.66;103462.47;4961617;28;45525;-60
2023/02/06 11:18:09;;;;;;;;;26.25;14.00;;;;;14.06;58.79;103451.28;4961313;28;45472;-62
2023/02/06 11:20:37;;;;;;;;;15.25;13.25;;;;;14.24;58.42;103455.97;4961393;28;45331;-62
2023/02/06 11:23:26;;;;;;;;;10.75;10.50;;;;;14.42;58.50;103455.31;4960188;28;45548;-62
2023/02/06 11:26:13;;;;;;;;;16.25;14.25;;;;;14.62;58.31;103460.88;4961035;28;45398;-62
2023/02/06 11:29:00;;;;;;;;;14.25;10.25;;;;;14.79;58.28;103453.13;4943738;28;45374;-63
2023/02/06 11:31:48;;;;;;;;;16.75;13.75;;;;;14.95;57.93;103448.91;4961287;28;45375;-62
2023/02/06 11:34:52;;;;;;;;;11.00;11.00;;;;;15.09;57.77;103451.69;4951037;28;45332;-62